Main page
METAR-TAF:

METAR-TAF

Airports :

Zenata – Messali El Hadj Airport

Tlemcen, Algeria

latitude: 35-01N, longitude: 001-28W, elevation: 247 m

Current weather observation

The report was made 38 minutes ago, at 20:30 UTC
Calm wind
Temperature 9°C
Humidity 93%
Pressure 1026 hPa
Visibility 10 km or more
no clouds below 1500 m and no cumulonimbus

METAR: DAON 102030Z 00000KT CAVOK 09/08 Q1026

Time: 22:08 (21:08 UTC)

Forecast

The report was made 4 hours and 8 minutes ago, at 17:00 UTC
Forecast valid from 10 at 18 UTC to 11 at 18 UTC
Wind 10 kt from the North/Northwest
Visibility 10 km or more
no clouds below 1500 m and no cumulonimbus
Becoming
from 10 at 19 UTC to 10 at 20 UTC
Wind 2 kt from variable directions
Becoming
from 11 at 10 UTC to 11 at 12 UTC
Wind 10 kt from the West/Southwest

TAF: DAON 101700Z 1018/1118 34010KT CAVOK BECMG 1019/1020 VRB02KT BECMG 1110/1112 24010KT

Weather observations and forecasts of more than 4000 airports (METAR and TAF reports).

The available stations are represented by yellow and red dots on the map.

Hover mouse over dot to see the name of the station.

Then click to see weather observations and forecasts.

To change the map : click on the green buttons with a black cross to zoom in, on the green button with a dash to zoom out, or on the green arrows for adjacent maps.


METAR-TAF: